Time;durP1;ratioP1;P1;durP2;ratioP2;P2;SDS_P1;SDS_P2;PMS_P1;PMS_P2;Temp;Humidity;BMP_temperature;BMP_pressure;BME280_temperature;BME280_humidity;BME280_pressure;Samples;Min_cycle;Max_cycle;Signal;HPM_P1;HPM_P2
2022/11/18 00:00:36;;;;;;;35.33;23.27;;;;;;;;;;5138429;27;20062;-84
2022/11/18 00:03:20;;;;;;;36.30;23.60;;;;;;;;;;5138368;27;20069;-84
2022/11/18 00:06:06;;;;;;;35.88;22.17;;;6.80;99.90;;;;;;5154050;27;20037;-83
2022/11/18 00:08:54;;;;;;;40.58;23.88;;;7.00;99.90;;;;;;5138094;27;20406;-84
2022/11/18 00:14:42;;;;;;;39.75;23.52;;;;;;;;;;5153644;27;20045;-84
2022/11/18 00:17:26;;;;;;;40.40;24.50;;;6.90;99.90;;;;;;5154037;27;20038;-84
2022/11/18 00:20:11;;;;;;;43.38;24.52;;;;;;;;;;5138342;27;20050;-84
2022/11/18 00:22:55;;;;;;;43.05;24.48;;;;;;;;;;5138092;27;20079;-84
2022/11/18 00:25:40;;;;;;;44.30;24.88;;;;;;;;;;5123995;27;20038;-84
2022/11/18 00:28:24;;;;;;;43.53;24.80;;;;;;;;;;5138255;27;20065;-84
2022/11/18 00:31:11;;;;;;;47.90;25.27;;;6.90;99.90;;;;;;5138682;27;20153;-84
2022/11/18 00:33:56;;;;;;;47.42;25.75;;;;;;;;;;5153629;27;20034;-85
2022/11/18 00:36:42;;;;;;;46.95;24.58;;;6.90;99.90;;;;;;5138178;27;20114;-84
2022/11/18 00:39:26;;;;;;;44.13;24.88;;;6.80;99.90;;;;;;5138311;27;20034;-84
2022/11/18 00:45:13;;;;;;;45.17;23.80;;;;;;;;;;5131993;28;19926;-84
2022/11/18 00:47:58;;;;;;;42.92;24.67;;;6.90;99.90;;;;;;5132700;28;20095;-84
2022/11/18 00:50:42;;;;;;;51.92;27.27;;;6.90;99.90;;;;;;5131970;28;20390;-83
2022/11/18 00:53:25;;;;;;;;;;;6.90;99.90;;;;;;5133410;28;20452;-84
2022/11/18 00:56:10;;;;;;;49.95;25.95;;;6.90;99.90;;;;;;5131694;28;19998;-84
2022/11/18 00:58:55;;;;;;;54.20;25.38;;;;;;;;;;5132489;28;20605;-84
2022/11/18 01:01:39;;;;;;;54.17;26.40;;;;;;;;;;5131933;28;20103;-84
2022/11/18 01:04:24;;;;;;;50.88;25.73;;;;;;;;;;5132003;28;20531;-84
2022/11/18 01:07:08;;;;;;;53.40;26.65;;;;;;;;;;5116891;28;20118;-84
2022/11/18 01:09:53;;;;;;;58.08;28.27;;;;;;;;;;5131340;28;20095;-84
2022/11/18 01:15:42;;;;;;;53.53;27.02;;;6.90;99.90;;;;;;5132875;27;20594;-84
2022/11/18 01:18:30;;;;;;;55.60;25.73;;;6.80;99.90;;;;;;5135387;27;20099;-84
2022/11/18 01:21:14;;;;;;;49.38;26.27;;;;;;;;;;5134987;27;20049;-84
2022/11/18 01:23:59;;;;;;;63.22;28.55;;;;;;;;;;5136063;27;20084;-84
2022/11/18 01:26:43;;;;;;;53.45;26.88;;;;;;;;;;5135335;27;20092;-84
2022/11/18 01:29:28;;;;;;;60.70;27.58;;;;;;;;;;5136255;27;20042;-84
2022/11/18 01:32:12;;;;;;;49.65;26.33;;;;;;;;;;5135923;27;20042;-85
2022/11/18 01:34:57;;;;;;;57.35;27.90;;;;;;;;;;5134618;27;20030;-85
2022/11/18 01:37:41;;;;;;;55.05;26.55;;;;;;;;;;5135298;27;20161;-84
2022/11/18 01:40:26;;;;;;;59.65;30.58;;;;;;;;;;5134885;27;20042;-84
2022/11/18 01:43:16;;;;;;;63.05;28.75;;;6.90;99.90;;;;;;5135599;27;20115;-84
2022/11/18 01:46:00;;;;;;;56.13;28.45;;;6.90;99.90;;;;;;5153076;27;20053;-84
2022/11/18 01:48:46;;;;;;;;;;;6.90;99.90;;;;;;5141294;27;20050;-84
2022/11/18 01:51:43;;;;;;;56.95;27.25;;;7.00;99.90;;;;;;5141116;27;19918;-84
2022/11/18 01:54:32;;;;;;;57.88;27.40;;;6.80;99.90;;;;;;5140736;27;20089;-84
2022/11/18 01:57:19;;;;;;;57.22;27.05;;;6.90;99.90;;;;;;5155905;27;20042;-84
2022/11/18 02:00:04;;;;;;;54.22;26.73;;;6.70;99.90;;;;;;5156016;27;20397;-84
2022/11/18 02:02:49;;;;;;;54.50;26.55;;;;;;;;;;5156601;27;20037;-84
2022/11/18 02:05:34;;;;;;;49.85;25.73;;;6.90;99.90;;;;;;5155964;27;20037;-84
2022/11/18 02:08:20;;;;;;;55.15;27.05;;;;;;;;;;5125609;27;20038;-84
2022/11/18 02:11:08;;;;;;;51.03;26.63;;;6.90;99.90;;;;;;5140020;27;20114;-86
2022/11/18 02:13:52;;;;;;;55.55;26.98;;;6.90;99.90;;;;;;5156305;27;20485;-83
2022/11/18 02:16:55;;;;;;;;;;;6.90;99.90;;;;;;5136933;27;20079;-84
2022/11/18 02:19:46;;;;;;;57.22;26.08;;;6.80;99.90;;;;;;5135137;27;19913;-84
2022/11/18 02:22:36;;;;;;;60.25;27.45;;;6.60;99.90;;;;;;5155977;27;20045;-84
2022/11/18 02:25:23;;;;;;;49.45;25.63;;;6.80;99.90;;;;;;5139711;27;20042;-84
2022/11/18 02:28:10;;;;;;;53.72;25.75;;;6.80;99.90;;;;;;5154882;27;20043;-84
2022/11/18 02:31:05;;;;;;;49.50;25.77;;;6.90;99.90;;;;;;5140073;27;20087;-84
2022/11/18 02:34:05;;;;;;;56.50;25.33;;;6.80;99.90;;;;;;5155747;27;20072;-84
2022/11/18 02:37:04;;;;;;;55.95;26.55;;;6.80;99.90;;;;;;5139919;27;20086;-84
2022/11/18 02:40:00;;;;;;;59.17;26.60;;;6.80;99.90;;;;;;5139979;27;20033;-84
2022/11/18 02:42:51;;;;;;;54.65;27.00;;;6.80;99.90;;;;;;5139950;27;20050;-84
2022/11/18 02:45:39;;;;;;;54.15;25.80;;;6.80;99.90;;;;;;5155633;27;20057;-84
2022/11/18 02:48:27;;;;;;;58.55;27.20;;;6.80;99.90;;;;;;5139368;27;20174;-83
2022/11/18 02:51:14;;;;;;;46.22;25.17;;;6.80;99.90;;;;;;5155142;27;20079;-84
2022/11/18 02:54:04;;;;;;;58.15;25.02;;;6.80;99.90;;;;;;5139522;27;20029;-84
2022/11/18 02:56:50;;;;;;;57.38;25.83;;;6.80;99.90;;;;;;5139674;27;20052;-84
2022/11/18 02:59:34;;;;;;;55.42;25.45;;;;;;;;;;5155237;27;20053;-84
2022/11/18 03:02:22;;;;;;;56.35;26.48;;;6.80;99.90;;;;;;5113440;27;20046;-84
2022/11/18 03:05:15;;;;;;;57.60;27.55;;;6.80;99.90;;;;;;5152097;27;20029;-86
2022/11/18 03:08:09;;;;;;;55.08;26.35;;;6.80;99.90;;;;;;5129421;27;20034;-84
2022/11/18 03:11:13;;;;;;;59.38;27.77;;;6.70;99.90;;;;;;5142092;27;20038;-84
2022/11/18 03:14:38;;;;;;;54.17;26.52;;;6.70;99.90;;;;;;5144704;27;20033;-84
2022/11/18 03:17:52;;;;;;;50.08;25.50;;;6.80;99.90;;;;;;5122692;27;20548;-84
2022/11/18 03:20:44;;;;;;;56.30;27.58;;;6.80;99.90;;;;;;5127486;27;20418;-84
2022/11/18 03:23:37;;;;;;;61.17;27.30;;;6.90;99.90;;;;;;5154248;27;20435;-83
2022/11/18 03:26:28;;;;;;;63.22;29.13;;;6.70;99.90;;;;;;5138763;27;20082;-84
2022/11/18 03:29:30;;;;;;;54.97;27.73;;;6.80;99.90;;;;;;5154359;27;20114;-84
2022/11/18 03:32:20;;;;;;;55.67;27.02;;;6.80;99.90;;;;;;5154313;27;20060;-84
2022/11/18 03:35:14;;;;;;;59.10;27.15;;;6.90;99.90;;;;;;5153202;27;20037;-84
2022/11/18 03:38:06;;;;;;;52.83;27.02;;;6.80;99.90;;;;;;5129135;27;20037;-83
2022/11/18 03:40:54;;;;;;;61.28;29.10;;;6.80;99.90;;;;;;5154482;27;20045;-84
2022/11/18 03:43:44;;;;;;;53.42;28.48;;;6.80;99.90;;;;;;5138642;27;20490;-83
2022/11/18 03:46:35;;;;;;;57.00;27.58;;;6.80;99.90;;;;;;5153803;27;20182;-84
2022/11/18 03:49:31;;;;;;;47.10;26.50;;;7.50;99.90;;;;;;5153978;27;20106;-84
2022/11/18 03:52:23;;;;;;;55.60;26.88;;;6.80;99.90;;;;;;5153786;27;20501;-85
2022/11/18 03:55:15;;;;;;;50.60;26.05;;;6.60;99.90;;;;;;5154338;27;20091;-84
2022/11/18 03:58:14;;;;;;;47.67;25.35;;;6.80;99.90;;;;;;5154522;27;20076;-84
2022/11/18 04:01:08;;;;;;;51.60;25.67;;;6.70;99.90;;;;;;5138576;27;20038;-84
2022/11/18 04:03:52;;;;;;;47.33;24.07;;;;;;;;;;5154306;27;20504;-84
2022/11/18 04:07:06;;;;;;;46.67;24.33;;;6.60;99.90;;;;;;5138010;27;20086;-83
2022/11/18 04:10:09;;;;;;;35.60;19.10;;;6.70;99.90;;;;;;5124797;28;20395;-84
2022/11/18 04:13:05;;;;;;;48.80;25.15;;;6.70;99.90;;;;;;5135778;27;20258;-84
2022/11/18 04:15:50;;;;;;;40.50;23.08;;;;;;;;;;5154088;27;20410;-84
2022/11/18 04:18:35;;;;;;;44.45;22.20;;;;;;;;;;5138007;27;20038;-84
2022/11/18 04:21:20;;;;;;;39.97;23.75;;;;;;;;;;5153445;27;20105;-84
2022/11/18 04:24:04;;;;;;;45.55;23.20;;;6.60;99.90;;;;;;5154094;27;20094;-83
2022/11/18 04:26:49;;;;;;;42.15;22.63;;;;;;;;;;5123928;27;20041;-84
2022/11/18 04:29:33;;;;;;;44.25;23.15;;;;;;;;;;5123346;27;20504;-84
2022/11/18 04:32:18;;;;;;;41.58;22.73;;;;;;;;;;5153993;27;20069;-84
2022/11/18 04:35:02;;;;;;;43.70;24.10;;;6.70;99.90;;;;;;5123751;27;20045;-84
2022/11/18 04:37:47;;;;;;;46.50;23.52;;;;;;;;;;5138269;27;20053;-84
2022/11/18 04:40:31;;;;;;;40.80;23.50;;;;;;;;;;5153475;27;20094;-84
2022/11/18 04:43:15;;;;;;;40.20;22.88;;;6.60;99.90;;;;;;5153853;27;20034;-84
2022/11/18 04:45:59;;;;;;;41.13;21.58;;;6.40;99.90;;;;;;5138232;27;20412;-84
2022/11/18 04:48:44;;;;;;;40.25;23.05;;;;;;;;;;5123103;27;20091;-84
2022/11/18 04:51:28;;;;;;;47.33;22.58;;;6.60;99.90;;;;;;5141761;27;20087;-84
2022/11/18 04:54:13;;;;;;;39.63;21.67;;;;;;;;;;5129478;27;20391;-84
2022/11/18 04:56:59;;;;;;;41.28;22.40;;;6.60;99.90;;;;;;5157616;27;20038;-83
2022/11/18 04:59:43;;;;;;;42.03;21.80;;;6.60;99.90;;;;;;5157218;27;20086;-84
2022/11/18 05:02:27;;;;;;;41.00;21.70;;;6.60;99.90;;;;;;5141407;27;20091;-84
2022/11/18 05:05:11;;;;;;;;;;;6.80;99.90;;;;;;5158159;27;20041;-84
2022/11/18 05:07:55;;;;;;;35.13;20.33;;;6.50;99.90;;;;;;5141743;27;20006;-84
2022/11/18 05:10:39;;;;;;;42.90;22.83;;;7.50;99.90;;;;;;5143266;27;20058;-84
2022/11/18 05:13:23;;;;;;;;;;;7.60;99.90;;;;;;5145079;27;20390;-84
2022/11/18 05:16:07;;;;;;;39.53;21.88;;;6.50;99.90;;;;;;5157349;27;20065;-85
2022/11/18 05:18:52;;;;;;;39.50;20.80;;;6.50;99.90;;;;;;5141871;27;20076;-84
2022/11/18 05:21:36;;;;;;;39.65;21.30;;;6.90;99.90;;;;;;5140998;27;20501;-84
2022/11/18 05:24:23;;;;;;;39.58;21.23;;;6.50;99.90;;;;;;5157262;27;20506;-84
2022/11/18 05:27:07;;;;;;;39.53;22.25;;;6.50;99.90;;;;;;5157148;27;20553;-83
2022/11/18 05:29:51;;;;;;;43.35;21.10;;;7.30;99.90;;;;;;5156485;27;20079;-84
2022/11/18 05:32:35;;;;;;;40.88;21.17;;;6.50;99.90;;;;;;5140996;27;20048;-84
2022/11/18 05:35:20;;;;;;;48.25;22.48;;;;;;;;;;5127278;27;20045;-85
2022/11/18 05:38:05;;;;;;;42.83;22.77;;;;;;;;;;5141260;27;20038;-83
2022/11/18 05:40:49;;;;;;;41.05;22.15;;;;;;;;;;5156310;27;20069;-84
2022/11/18 05:43:35;;;;;;;43.28;21.92;;;6.50;99.90;;;;;;5156162;27;20506;-84
2022/11/18 05:46:19;;;;;;;43.25;23.33;;;;;;;;;;5134965;27;20419;-83
2022/11/18 05:49:04;;;;;;;45.40;22.67;;;6.40;99.90;;;;;;5136019;27;20034;-83
2022/11/18 05:51:48;;;;;;;45.15;23.73;;;;;;;;;;5119826;27;20398;-84
2022/11/18 05:54:33;;;;;;;47.95;22.83;;;6.60;99.90;;;;;;5135478;27;20438;-85
2022/11/18 05:57:17;;;;;;;46.55;23.88;;;6.50;99.90;;;;;;5135664;27;20042;-83
2022/11/18 06:00:03;;;;;;;45.95;21.77;;;6.50;99.90;;;;;;5120463;27;20154;-84
2022/11/18 06:02:49;;;;;;;41.40;21.67;;;6.40;99.90;;;;;;5134443;27;20123;-84
2022/11/18 06:05:34;;;;;;;46.40;22.10;;;;;;;;;;5134118;27;20156;-84
2022/11/18 06:08:19;;;;;;;53.28;22.95;;;6.40;99.90;;;;;;5134610;27;20156;-84
2022/11/18 06:11:06;;;;;;;47.78;24.02;;;6.80;99.90;;;;;;5120002;27;20046;-84
2022/11/18 06:14:01;;;;;;;49.50;23.80;;;6.40;99.90;;;;;;5135133;27;20039;-84
2022/11/18 06:16:50;;;;;;;48.53;21.63;;;6.30;99.90;;;;;;5134995;27;20072;-84
2022/11/18 06:19:35;;;;;;;45.90;22.17;;;;;;;;;;5133811;27;20091;-86
2022/11/18 06:22:20;;;;;;;45.00;21.73;;;6.30;99.90;;;;;;5135330;27;20096;-84
2022/11/18 06:25:04;;;;;;;51.63;23.75;;;6.50;99.90;;;;;;5135375;27;20038;-83
2022/11/18 06:27:50;;;;;;;47.28;23.52;;;6.20;99.90;;;;;;5134699;27;20039;-84
2022/11/18 06:30:34;;;;;;;46.88;23.27;;;6.30;99.90;;;;;;5119363;27;20559;-84
2022/11/18 06:33:19;;;;;;;48.38;23.15;;;;;;;;;;5132144;27;20054;-83
2022/11/18 06:36:03;;;;;;;49.45;22.67;;;6.20;99.90;;;;;;5127518;27;20030;-84
2022/11/18 06:38:48;;;;;;;49.85;23.45;;;6.30;99.90;;;;;;5120610;27;20078;-84
2022/11/18 06:41:33;;;;;;;45.67;22.20;;;;;;;;;;5119161;27;20399;-84
2022/11/18 06:44:18;;;;;;;47.70;22.35;;;;;;;;;;5133632;27;20041;-84
2022/11/18 06:47:03;;;;;;;49.08;22.60;;;6.00;99.90;;;;;;5123682;27;20108;-84
2022/11/18 06:49:47;;;;;;;47.83;22.75;;;6.10;99.90;;;;;;5116920;27;20035;-84
2022/11/18 06:52:31;;;;;;;;;;;6.20;99.90;;;;;;5109884;27;20497;-84
2022/11/18 06:55:16;;;;;;;45.45;21.48;;;;;;;;;;5116716;27;20268;-84
2022/11/18 06:58:00;;;;;;;47.15;21.08;;;6.50;99.90;;;;;;5122906;27;20044;-84
2022/11/18 07:00:44;;;;;;;46.78;21.10;;;6.30;99.90;;;;;;5098251;28;20104;-85
2022/11/18 07:03:28;;;;;;;;;;;6.10;99.90;;;;;;5112633;27;20042;-84
2022/11/18 07:06:15;;;;;;;44.40;18.98;;;6.10;99.90;;;;;;5121439;27;19958;-84
2022/11/18 07:09:01;;;;;;;49.47;22.83;;;6.00;99.90;;;;;;5115913;27;20062;-84
2022/11/18 07:11:46;;;;;;;41.72;20.80;;;6.50;99.90;;;;;;5109675;27;20058;-85
2022/11/18 07:14:30;;;;;;;46.30;23.55;;;6.10;99.90;;;;;;5103517;27;20043;-84
2022/11/18 07:17:15;;;;;;;48.50;21.02;;;;;;;;;;5098096;27;20081;-83
2022/11/18 07:19:59;;;;;;;46.35;21.50;;;6.10;99.90;;;;;;5103677;27;20043;-84
2022/11/18 07:22:43;;;;;;;45.00;21.65;;;6.30;99.90;;;;;;5095458;28;20086;-84
2022/11/18 07:25:27;;;;;;;43.92;21.90;;;6.10;99.90;;;;;;5099833;27;20039;-84
2022/11/18 07:28:11;;;;;;;;;;;6.20;99.90;;;;;;5105024;27;20046;-84
2022/11/18 07:31:10;;;;;;;44.42;19.70;;;6.50;99.90;;;;;;5098421;27;19919;-84
2022/11/18 07:33:54;;;;;;;46.83;20.48;;;6.20;99.90;;;;;;5098323;27;20078;-84
2022/11/18 07:36:39;;;;;;;51.20;20.95;;;;;;;;;;5104583;27;20042;-85
2022/11/18 07:39:23;;;;;;;43.20;20.48;;;;;;;;;;5097687;27;20120;-84
2022/11/18 07:42:08;;;;;;;40.85;19.48;;;6.10;99.90;;;;;;5097088;27;20071;-84
2022/11/18 07:44:53;;;;;;;39.75;19.73;;;6.20;99.90;;;;;;5098211;27;20035;-85
2022/11/18 07:47:38;;;;;;;46.42;19.42;;;6.20;99.90;;;;;;5090192;28;20071;-84
2022/11/18 07:50:23;;;;;;;35.85;18.48;;;;;;;;;;5122587;27;20101;-84
2022/11/18 07:53:07;;;;;;;41.28;18.70;;;;;;;;;;5103156;27;20400;-84
2022/11/18 07:55:53;;;;;;;37.58;18.38;;;6.00;99.90;;;;;;5098914;27;20072;-87
2022/11/18 07:58:38;;;;;;;39.67;17.90;;;6.00;99.90;;;;;;5132204;27;20038;-84
2022/11/18 08:01:24;;;;;;;33.63;18.17;;;6.00;99.90;;;;;;5118115;27;20047;-84
2022/11/18 08:04:10;;;;;;;37.75;16.98;;;6.00;99.90;;;;;;5116644;28;20034;-84
2022/11/18 08:06:55;;;;;;;34.05;16.60;;;;;;;;;;5106178;28;20515;-84
2022/11/18 08:09:39;;;;;;;36.20;16.13;;;5.90;99.90;;;;;;5108836;28;20404;-84
2022/11/18 08:12:24;;;;;;;35.05;16.42;;;;;;;;;;5105073;28;20112;-83
2022/11/18 08:15:08;;;;;;;34.10;16.73;;;5.90;99.90;;;;;;5097219;28;20077;-84
2022/11/18 08:17:53;;;;;;;31.08;14.45;;;;;;;;;;5082827;28;20109;-87
2022/11/18 08:20:37;;;;;;;31.40;15.88;;;6.00;99.90;;;;;;5111681;28;20046;-84
2022/11/18 08:23:22;;;;;;;33.38;16.27;;;;;;;;;;5111645;28;20529;-83
2022/11/18 08:26:12;;;;;;;34.63;16.52;;;5.90;99.90;;;;;;5115734;28;20119;-85
2022/11/18 08:28:57;;;;;;;30.27;14.98;;;5.80;99.90;;;;;;5116440;28;20085;-84
2022/11/18 08:31:41;;;;;;;27.25;14.05;;;;;;;;;;5116933;28;20073;-84
2022/11/18 08:34:26;;;;;;;28.80;15.20;;;;;;;;;;5115893;28;20035;-83
2022/11/18 08:37:10;;;;;;;26.58;14.57;;;;;;;;;;5116412;28;20134;-83
2022/11/18 08:39:55;;;;;;;27.02;13.75;;;;;;;;;;5115615;28;20118;-83
2022/11/18 08:42:39;;;;;;;26.17;13.60;;;;;;;;;;5115844;28;20091;-84
2022/11/18 08:45:24;;;;;;;28.08;15.00;;;;;;;;;;5121971;27;20099;-83
2022/11/18 08:48:08;;;;;;;26.58;13.85;;;;;;;;;;5141868;27;20085;-84
2022/11/18 08:50:53;;;;;;;26.30;14.23;;;6.00;99.90;;;;;;5157955;27;20038;-84
2022/11/18 08:53:38;;;;;;;25.38;14.35;;;;;;;;;;5157473;27;20042;-84
2022/11/18 08:56:24;;;;;;;26.15;14.93;;;6.00;99.90;;;;;;5127324;27;20045;-83
2022/11/18 08:59:09;;;;;;;28.60;13.93;;;;;;;;;;5157188;27;20115;-84
2022/11/18 09:01:53;;;;;;;24.85;13.55;;;;;;;;;;5141890;27;20049;-84
2022/11/18 09:04:38;;;;;;;28.88;15.48;;;;;;;;;;5141768;27;20091;-84
2022/11/18 09:07:22;;;;;;;25.85;15.05;;;;;;;;;;5141213;27;20049;-84
2022/11/18 09:10:07;;;;;;;30.70;14.48;;;6.10;99.90;;;;;;5126876;27;20557;-84
2022/11/18 09:12:51;;;;;;;26.67;14.38;;;;;;;;;;5157273;27;20418;-83
2022/11/18 09:15:36;;;;;;;25.73;14.80;;;6.00;99.90;;;;;;5141999;27;20042;-83
2022/11/18 09:18:20;;;;;;;;;;;6.00;99.90;;;;;;5141684;27;20037;-84
2022/11/18 09:21:06;;;;;;;;;;;7.00;99.90;;;;;;5121633;27;19930;-83
2022/11/18 09:23:50;;;;;;;30.85;14.38;;;;;;;;;;5157241;27;20324;-84
2022/11/18 09:26:35;;;;;;;28.30;13.48;;;;;;;;;;5157165;27;20037;-84
2022/11/18 09:29:24;;;;;;;31.90;15.02;;;;;;;;;;5141070;27;20033;-83
2022/11/18 09:32:08;;;;;;;26.00;14.50;;;;;;;;;;5156758;27;20389;-84
2022/11/18 09:34:53;;;;;;;27.13;13.80;;;;;;;;;;5141339;27;20112;-84
2022/11/18 09:37:37;;;;;;;27.75;15.00;;;;;;;;;;5155601;27;20090;-83
2022/11/18 09:40:22;;;;;;;30.83;15.00;;;;;;;;;;5140715;27;20390;-83
2022/11/18 09:43:19;;;;;;;30.10;14.60;;;5.90;99.90;;;;;;5156401;27;20042;-85
2022/11/18 09:46:26;;;;;;;31.35;15.60;;;5.90;99.90;;;;;;5134919;27;20411;-83
2022/11/18 09:49:15;;;;;;;33.35;15.73;;;5.90;99.90;;;;;;5134702;27;20134;-83
2022/11/18 09:52:11;;;;;;;30.15;14.43;;;5.90;99.90;;;;;;5135864;27;20052;-83
2022/11/18 09:54:56;;;;;;;29.35;14.90;;;6.40;99.90;;;;;;5135788;27;20030;-84
2022/11/18 09:57:53;;;;;;;28.02;15.18;;;6.00;99.90;;;;;;5122592;27;20538;-83
2022/11/18 10:00:41;;;;;;;30.65;15.05;;;5.90;99.90;;;;;;5135559;27;20057;-83
2022/11/18 10:03:31;;;;;;;30.95;15.18;;;5.80;99.90;;;;;;5135287;27;20497;-84
2022/11/18 10:06:19;;;;;;;31.45;15.60;;;5.90;99.90;;;;;;5134368;27;20096;-83
2022/11/18 10:09:25;;;;;;;35.90;15.80;;;5.90;99.90;;;;;;5134476;27;20058;-83
2022/11/18 10:12:21;;;;;;;28.33;14.50;;;6.00;99.90;;;;;;5130259;27;20108;-83
2022/11/18 10:15:21;;;;;;;25.88;14.48;;;6.00;99.90;;;;;;5122570;27;20531;-83
2022/11/18 10:18:34;;;;;;;25.75;13.32;;;5.90;99.90;;;;;;5134313;27;20080;-83
2022/11/18 10:21:44;;;;;;;26.80;14.20;;;5.80;99.90;;;;;;5134687;27;20122;-83
2022/11/18 10:24:41;;;;;;;27.13;14.23;;;6.00;99.90;;;;;;5134772;27;20445;-84
2022/11/18 10:27:36;;;;;;;29.02;14.43;;;6.50;99.90;;;;;;5134865;27;20037;-83
2022/11/18 10:30:25;;;;;;;28.67;13.80;;;6.00;99.90;;;;;;5119588;27;20083;-84
2022/11/18 10:33:21;;;;;;;30.63;15.77;;;5.80;99.90;;;;;;5134600;27;20046;-83
2022/11/18 10:36:16;;;;;;;29.98;14.77;;;5.90;99.90;;;;;;5125895;27;20088;-84
2022/11/18 10:39:14;;;;;;;35.42;16.27;;;5.80;99.90;;;;;;5133412;27;20080;-85
2022/11/18 10:42:05;;;;;;;37.75;18.02;;;6.00;99.90;;;;;;5134352;27;20068;-84
2022/11/18 10:44:50;;;;;;;34.60;15.70;;;;;;;;;;5127736;27;20087;-83
2022/11/18 10:47:34;;;;;;;31.90;15.25;;;5.80;99.90;;;;;;5137223;27;20115;-84
2022/11/18 10:50:38;;;;;;;30.75;17.20;;;5.90;99.90;;;;;;5133752;27;20390;-86
2022/11/18 10:53:43;;;;;;;33.95;16.13;;;6.00;99.90;;;;;;5127329;27;20034;-84
2022/11/18 10:56:27;;;;;;;;;;;5.80;99.90;;;;;;5112817;28;20081;-84
2022/11/18 10:59:27;;;;;;;30.20;15.45;;;5.70;99.90;;;;;;5132509;27;20413;-85
2022/11/18 11:02:20;;;;;;;30.88;15.55;;;5.80;99.90;;;;;;5134308;27;20579;-82
2022/11/18 11:05:20;;;;;;;30.70;16.60;;;5.70;99.90;;;;;;5130167;27;20130;-84
2022/11/18 11:08:18;;;;;;;33.88;15.90;;;5.80;99.90;;;;;;5123520;27;20415;-84
2022/11/18 11:11:03;;;;;;;31.02;15.60;;;;;;;;;;5117983;27;20060;-87
2022/11/18 11:13:48;;;;;;;31.25;14.77;;;;;;;;;;5132417;27;20045;-82
2022/11/18 11:16:40;;;;;;;32.38;16.15;;;5.60;99.90;;;;;;5131408;27;20037;-85
2022/11/18 11:19:34;;;;;;;30.40;15.95;;;5.60;99.90;;;;;;5131834;27;20083;-84
2022/11/18 11:22:19;;;;;;;32.42;15.48;;;5.60;99.90;;;;;;5132509;27;20080;-84
2022/11/18 11:25:12;;;;;;;32.63;15.57;;;5.50;99.90;;;;;;5132440;27;20058;-84
2022/11/18 11:28:07;;;;;;;29.70;14.88;;;5.50;99.90;;;;;;5133212;27;20030;-84
2022/11/18 11:31:06;;;;;;;31.80;16.08;;;5.60;99.90;;;;;;5132216;27;20444;-84
2022/11/18 11:34:06;;;;;;;39.88;17.33;;;5.50;99.90;;;;;;5120261;27;20034;-84
2022/11/18 11:36:51;;;;;;;35.15;16.42;;;;;;;;;;5133252;27;20060;-84
2022/11/18 11:40:01;;;;;;;41.47;18.35;;;5.30;99.90;;;;;;5132007;27;20100;-84
2022/11/18 11:43:00;;;;;;;38.50;16.85;;;5.30;99.90;;;;;;5124020;27;20123;-84
2022/11/18 11:46:07;;;;;;;36.45;18.08;;;5.40;99.90;;;;;;5138833;27;20064;-84
2022/11/18 11:48:51;;;;;;;42.60;18.17;;;;;;;;;;5137914;27;20387;-84
2022/11/18 11:51:45;;;;;;;40.92;19.00;;;5.30;99.90;;;;;;5152814;27;20496;-84
2022/11/18 11:54:41;;;;;;;40.08;18.77;;;5.20;99.90;;;;;;5153695;27;20099;-84
2022/11/18 11:57:44;;;;;;;40.72;17.58;;;5.00;99.90;;;;;;5147798;27;20152;-83
2022/11/18 12:00:31;;;;;;;38.40;17.60;;;5.20;99.90;;;;;;5134356;27;20038;-84
2022/11/18 12:03:39;;;;;;;37.95;16.45;;;5.20;99.90;;;;;;5130214;27;20033;-84
2022/11/18 12:06:24;;;;;;;34.88;15.38;;;;;;;;;;5153738;27;20114;-84
2022/11/18 12:09:26;;;;;;;37.03;17.35;;;5.20;99.90;;;;;;5137987;27;20485;-84
2022/11/18 12:12:41;;;;;;;39.10;17.30;;;5.00;99.90;;;;;;5138172;27;20065;-83
2022/11/18 12:15:31;;;;;;;;;;;5.20;99.90;;;;;;5138555;27;20030;-83
2022/11/18 12:18:42;;;;;;;39.13;17.00;;;5.20;99.90;;;;;;5138368;27;19956;-83
2022/11/18 12:21:44;;;;;;;34.05;14.85;;;5.10;99.90;;;;;;5138224;27;20045;-83
2022/11/18 12:24:30;;;;;;;30.43;14.00;;;5.20;99.90;;;;;;5153920;27;20046;-83
2022/11/18 12:27:26;;;;;;;32.45;14.65;;;5.20;99.90;;;;;;5154064;27;20123;-83
2022/11/18 12:30:17;;;;;;;29.30;13.55;;;5.20;99.90;;;;;;5138170;27;20079;-83
2022/11/18 12:33:02;;;;;;;24.07;12.27;;;;;;;;;;5138313;27;20038;-84
2022/11/18 12:35:49;;;;;;;25.48;13.32;;;5.10;99.90;;;;;;5153588;27;20056;-84
2022/11/18 12:38:33;;;;;;;28.48;14.48;;;;;;;;;;5153489;27;20091;-85
2022/11/18 12:44:44;;;;;;;;;;;5.10;99.90;;;;;;5146706;27;20045;-85
2022/11/18 12:47:40;;;;;;;23.80;11.67;;;5.00;99.90;;;;;;5138327;27;20270;-84
2022/11/18 12:50:48;;;;;;;26.67;12.30;;;5.10;99.90;;;;;;5153527;27;20030;-84
2022/11/18 12:53:44;;;;;;;28.40;12.65;;;5.20;99.90;;;;;;5153563;27;20030;-84
2022/11/18 12:56:35;;;;;;;30.10;13.57;;;5.10;99.90;;;;;;5153823;27;20038;-85
2022/11/18 12:59:31;;;;;;;23.63;12.13;;;5.00;99.90;;;;;;5125358;27;20030;-85
2022/11/18 13:02:20;;;;;;;26.70;13.60;;;5.00;99.90;;;;;;5153393;27;20041;-85
2022/11/18 13:05:20;;;;;;;26.07;13.43;;;4.80;99.90;;;;;;5153588;27;20485;-84
2022/11/18 13:08:11;;;;;;;32.20;14.87;;;4.90;99.90;;;;;;5137590;27;20063;-85
2022/11/18 13:20:35;;;;;;;29.10;14.10;;;4.90;99.90;;;;;;5147449;27;20402;-85
2022/11/18 13:26:33;;;;;;;29.50;14.00;;;4.80;99.90;;;;;;5157245;27;20041;-84
2022/11/18 13:29:18;;;;;;;30.43;13.67;;;;;;;;;;5157241;27;20033;-85
2022/11/18 13:32:09;;;;;;;28.73;13.23;;;4.80;99.90;;;;;;5156650;27;20065;-85
2022/11/18 13:35:01;;;;;;;26.17;12.33;;;4.70;99.90;;;;;;5156466;27;20486;-87
2022/11/18 13:37:53;;;;;;;30.60;14.00;;;4.80;99.90;;;;;;5141001;27;20110;-87
2022/11/18 13:43:46;;;;;;;26.90;13.47;;;;;;;;;;5155851;27;20501;-85
2022/11/18 13:46:31;;;;;;;26.30;13.20;;;;;;;;;;5140846;27;20050;-85
2022/11/18 13:49:20;;;;;;;28.17;13.60;;;4.60;99.90;;;;;;5121464;27;20117;-85
2022/11/18 13:52:10;;;;;;;26.13;13.00;;;4.50;99.90;;;;;;5155811;27;20122;-85
2022/11/18 13:54:56;;;;;;;31.00;15.17;;;4.50;99.90;;;;;;5155532;27;20038;-85
2022/11/18 13:57:41;;;;;;;33.30;16.40;;;;;;;;;;5146008;27;20080;-86
2022/11/18 14:00:28;;;;;;;35.63;17.73;;;4.40;99.90;;;;;;5156253;27;20436;-86
2022/11/18 14:03:50;;;;;;;30.17;15.17;;;4.50;99.90;;;;;;5140668;27;20033;-86
2022/11/18 14:06:37;;;;;;;28.67;13.87;;;4.40;99.90;;;;;;5138158;27;20095;-85
2022/11/18 14:09:28;;;;;;;29.53;15.60;;;4.20;99.90;;;;;;5140621;27;20033;-85
2022/11/18 14:12:13;;;;;;;28.90;14.87;;;;;;;;;;5156585;27;20038;-85
2022/11/18 14:15:12;;;;;;;26.27;13.70;;;4.30;99.90;;;;;;5155922;27;20037;-87
2022/11/18 14:17:58;;;;;;;26.67;13.47;;;4.20;99.90;;;;;;5139991;27;20045;-86
2022/11/18 14:20:50;;;;;;;27.10;13.73;;;4.20;99.90;;;;;;5140483;27;20046;-85
2022/11/18 14:23:36;;;;;;;26.57;14.30;;;4.20;99.90;;;;;;5139643;27;20033;-85
2022/11/18 14:26:35;;;;;;;25.77;13.13;;;4.20;99.90;;;;;;5139086;27;20100;-83
2022/11/18 14:29:21;;;;;;;24.67;13.83;;;;;;;;;;5148223;27;20079;-84
2022/11/18 14:32:15;;;;;;;25.57;13.37;;;4.40;99.90;;;;;;5139738;27;20037;-83
2022/11/18 14:35:00;;;;;;;26.80;13.48;;;4.20;99.90;;;;;;5139533;27;20087;-84
2022/11/18 14:37:44;;;;;;;26.50;14.37;;;;;;;;;;5147585;27;20555;-84
2022/11/18 14:40:29;;;;;;;24.63;12.60;;;;;;;;;;5155474;27;20107;-84
2022/11/18 14:43:13;;;;;;;23.40;12.67;;;;;;;;;;5119811;27;20046;-84
2022/11/18 14:46:10;;;;;;;26.20;13.77;;;4.00;99.90;;;;;;5139061;27;20086;-85
2022/11/18 14:48:55;;;;;;;31.90;13.93;;;;;;;;;;5154903;27;20492;-85
2022/11/18 14:51:40;;;;;;;24.60;13.00;;;;;;;;;;5155126;27;20448;-85
2022/11/18 14:54:25;;;;;;;25.63;12.83;;;3.90;99.90;;;;;;5139834;27;20037;-84
2022/11/18 14:57:13;;;;;;;27.20;12.47;;;3.90;99.90;;;;;;5122447;27;20037;-84
2022/11/18 14:59:58;;;;;;;26.40;13.23;;;;;;;;;;5147014;27;20049;-84
2022/11/18 15:02:43;;;;;;;20.60;12.00;;;;;;;;;;5132241;27;20045;-84
2022/11/18 15:05:28;;;;;;;23.03;12.83;;;;;;;;;;5151197;27;20065;-85
2022/11/18 15:08:12;;;;;;;25.10;12.07;;;;;;;;;;5138957;27;20050;-84
2022/11/18 15:10:57;;;;;;;23.37;12.87;;;;;;;;;;5154316;27;20073;-84
2022/11/18 15:13:42;;;;;;;27.73;14.53;;;;;;;;;;5139333;27;20470;-84
2022/11/18 15:16:28;;;;;;;25.93;13.40;;;3.60;99.90;;;;;;5123340;27;20041;-84
2022/11/18 15:19:14;;;;;;;22.97;12.50;;;3.50;99.90;;;;;;5138104;27;20418;-84
2022/11/18 15:21:59;;;;;;;29.87;14.13;;;;;;;;;;5152105;27;20087;-85
2022/11/18 15:24:43;;;;;;;29.83;15.13;;;;;;;;;;5154362;27;20037;-84
2022/11/18 15:27:28;;;;;;;28.50;13.87;;;;;;;;;;5139312;27;20034;-84
2022/11/18 15:30:14;;;;;;;24.73;13.33;;;;;;;;;;5138430;27;20075;-84
2022/11/18 15:32:59;;;;;;;27.23;13.43;;;;;;;;;;5138578;27;20037;-85
2022/11/18 15:35:43;;;;;;;22.10;12.37;;;;;;;;;;5153844;27;20049;-84